createdAt,value
2023-05-16T00:01:08.762Z,100.00
2023-05-16T00:04:00.849Z,100.00
2023-05-16T00:06:46.117Z,100.00
2023-05-16T00:09:37.757Z,100.00
2023-05-16T00:12:22.827Z,100.00
2023-05-16T00:15:18.767Z,100.00
2023-05-16T00:18:03.779Z,100.00
2023-05-16T00:20:55.853Z,100.00
2023-05-16T00:23:40.723Z,100.00
2023-05-16T00:26:32.766Z,100.00
2023-05-16T00:29:17.572Z,100.00
2023-05-16T00:32:08.922Z,100.00
2023-05-16T00:34:54.214Z,100.00
2023-05-16T00:37:45.756Z,100.00
2023-05-16T00:40:31.249Z,100.00
2023-05-16T00:43:22.767Z,100.00
2023-05-16T00:46:13.877Z,100.00
2023-05-16T00:49:05.764Z,100.00
2023-05-16T00:51:51.778Z,100.00
2023-05-16T00:54:43.766Z,100.00
2023-05-16T00:57:29.396Z,100.00
2023-05-16T01:00:26.114Z,100.00
2023-05-16T01:03:11.864Z,100.00
2023-05-16T01:06:04.770Z,100.00
2023-05-16T01:08:49.786Z,100.00
2023-05-16T01:11:58.780Z,100.00
2023-05-16T01:15:02.791Z,100.00
2023-05-16T01:18:11.136Z,100.00
2023-05-16T01:21:07.788Z,100.00
2023-05-16T01:24:03.641Z,100.00
2023-05-16T01:26:56.777Z,100.00
2023-05-16T01:29:41.730Z,100.00
2023-05-16T01:32:32.853Z,100.00
2023-05-16T01:35:18.343Z,100.00
2023-05-16T01:38:30.784Z,100.00
2023-05-16T01:41:21.990Z,100.00
2023-05-16T01:44:24.858Z,100.00
2023-05-16T01:47:20.806Z,100.00
2023-05-16T01:50:11.047Z,100.00
2023-05-16T01:53:12.789Z,100.00
2023-05-16T01:56:07.786Z,100.00
2023-05-16T01:59:00.786Z,100.00
2023-05-16T02:01:46.122Z,100.00
2023-05-16T02:04:37.781Z,100.00
2023-05-16T02:07:29.776Z,100.00
2023-05-16T02:10:15.150Z,100.00
2023-05-16T02:13:06.782Z,100.00
2023-05-16T02:15:52.830Z,100.00
2023-05-16T02:18:45.849Z,100.00
2023-05-16T02:21:31.145Z,100.00
2023-05-16T02:24:22.809Z,100.00
2023-05-16T02:27:07.672Z,100.00
2023-05-16T02:29:58.790Z,100.00
2023-05-16T02:32:45.066Z,100.00
2023-05-16T02:35:36.785Z,100.00
2023-05-16T02:38:21.907Z,100.00
2023-05-16T02:41:13.779Z,100.00
2023-05-16T02:44:18.812Z,100.00
2023-05-16T02:47:10.788Z,100.00
2023-05-16T02:49:56.244Z,100.00
2023-05-16T02:52:47.788Z,100.00
2023-05-16T02:55:32.926Z,100.00
2023-05-16T02:58:24.803Z,100.00
2023-05-16T03:01:10.208Z,100.00
2023-05-16T03:04:01.971Z,100.00
2023-05-16T03:06:47.049Z,100.00
2023-05-16T03:09:38.835Z,100.00
2023-05-16T03:12:24.105Z,100.00
2023-05-16T03:15:15.828Z,100.00
2023-05-16T03:18:06.840Z,100.00
2023-05-16T03:20:59.786Z,100.00
2023-05-16T03:23:44.400Z,100.00
2023-05-16T03:26:35.809Z,100.00
2023-05-16T03:29:21.048Z,100.00
2023-05-16T03:32:12.826Z,100.00
2023-05-16T03:35:03.819Z,100.00
2023-05-16T03:37:48.992Z,100.00
2023-05-16T03:40:40.800Z,100.00
2023-05-16T03:43:45.813Z,100.00
2023-05-16T03:46:37.813Z,100.00
2023-05-16T03:49:28.244Z,100.00
2023-05-16T03:52:19.796Z,100.00
2023-05-16T03:55:12.819Z,100.00
2023-05-16T03:58:03.813Z,100.00
2023-05-16T04:00:48.724Z,100.00
2023-05-16T04:03:40.813Z,100.00
2023-05-16T04:06:25.733Z,100.00
2023-05-16T04:09:16.817Z,100.00
2023-05-16T04:12:02.377Z,100.00
2023-05-16T04:14:53.840Z,100.00
2023-05-16T04:17:46.906Z,100.00
2023-05-16T04:20:37.853Z,100.00
2023-05-16T04:23:28.814Z,100.00
2023-05-16T04:26:14.475Z,100.00
2023-05-16T04:29:05.820Z,100.00
2023-05-16T04:31:50.746Z,100.00
2023-05-16T04:34:43.854Z,100.00
2023-05-16T04:37:34.827Z,100.00
2023-05-16T04:40:19.544Z,100.00
2023-05-16T04:43:10.874Z,100.00
2023-05-16T04:46:08.846Z,100.00
2023-05-16T04:49:00.832Z,100.00
2023-05-16T04:51:53.831Z,100.00
2023-05-16T04:54:39.453Z,100.00
2023-05-16T04:57:30.816Z,100.00
2023-05-16T05:00:16.227Z,100.00
2023-05-16T05:03:07.876Z,100.00
2023-05-16T05:05:52.931Z,100.00
2023-05-16T05:08:44.824Z,100.00
2023-05-16T05:11:29.683Z,100.00
2023-05-16T05:14:21.081Z,100.00
2023-05-16T05:17:06.607Z,100.00
2023-05-16T05:19:57.839Z,100.00
2023-05-16T05:22:42.959Z,100.00
2023-05-16T05:25:37.076Z,100.00
2023-05-16T05:28:22.750Z,100.00
2023-05-16T05:31:14.852Z,100.00
2023-05-16T05:33:59.715Z,100.00
2023-05-16T05:36:51.820Z,100.00
2023-05-16T05:39:36.698Z,100.00
2023-05-16T05:42:27.819Z,100.00
2023-05-16T05:45:19.986Z,100.00
2023-05-16T05:48:11.857Z,100.00
2023-05-16T05:51:03.827Z,100.00
2023-05-16T05:53:49.091Z,100.00
2023-05-16T05:56:40.836Z,100.00
2023-05-16T05:59:25.960Z,100.00
2023-05-16T06:02:17.890Z,100.00
2023-05-16T06:05:02.905Z,100.00
2023-05-16T06:07:53.841Z,100.00
2023-05-16T06:10:38.637Z,100.00
2023-05-16T06:13:29.874Z,100.00
2023-05-16T06:16:15.060Z,100.00
2023-05-16T06:19:06.962Z,100.00
2023-05-16T06:21:52.162Z,100.00
2023-05-16T06:24:43.862Z,100.00
2023-05-16T06:27:34.840Z,100.00
2023-05-16T06:30:19.981Z,100.00
2023-05-16T06:33:11.855Z,100.00
2023-05-16T06:35:56.801Z,100.00
2023-05-16T06:38:47.864Z,100.00
2023-05-16T06:41:32.913Z,100.00
2023-05-16T06:44:30.904Z,100.00
2023-05-16T06:47:22.268Z,100.00
2023-05-16T06:50:14.914Z,100.00
2023-05-16T06:53:00.519Z,100.00
2023-05-16T06:55:51.883Z,100.00
2023-05-16T06:58:39.036Z,100.00
2023-05-16T07:01:32.248Z,100.00
2023-05-16T07:04:17.747Z,100.00
2023-05-16T07:07:08.894Z,100.00
2023-05-16T07:09:54.041Z,100.00
2023-05-16T07:12:47.901Z,100.00
2023-05-16T07:15:33.237Z,100.00
2023-05-16T07:18:24.911Z,100.00
2023-05-16T07:21:09.719Z,100.00
2023-05-16T07:24:00.935Z,100.00
2023-05-16T07:26:45.786Z,100.00
2023-05-16T07:29:36.930Z,100.00
2023-05-16T07:32:22.088Z,100.00
2023-05-16T07:35:13.896Z,100.00
2023-05-16T07:37:58.780Z,100.00
2023-05-16T07:40:49.895Z,100.00
2023-05-16T07:43:54.915Z,100.00
2023-05-16T07:46:46.954Z,100.00
2023-05-16T07:49:31.965Z,100.00
2023-05-16T07:52:23.912Z,100.00
2023-05-16T07:55:09.486Z,100.00
2023-05-16T07:58:00.917Z,100.00
2023-05-16T08:00:52.901Z,100.00
2023-05-16T08:03:38.041Z,100.00
2023-05-16T08:06:29.909Z,100.00
2023-05-16T08:09:14.766Z,100.00
2023-05-16T08:12:09.898Z,100.00
2023-05-16T08:14:55.239Z,100.00
2023-05-16T08:17:46.935Z,100.00
2023-05-16T08:20:31.680Z,100.00
2023-05-16T08:23:22.993Z,100.00
2023-05-16T08:26:07.973Z,100.00
2023-05-16T08:28:58.930Z,100.00
2023-05-16T08:31:43.874Z,100.00
2023-05-16T08:34:37.938Z,100.00
2023-05-16T08:37:29.931Z,100.00
2023-05-16T08:40:21.989Z,100.00
2023-05-16T08:43:07.363Z,93.87
2023-05-16T08:46:05.920Z,100.00
2023-05-16T08:49:05.947Z,89.46
2023-05-16T08:52:01.704Z,97.24
2023-05-16T08:54:55.272Z,100.00
2023-05-16T08:57:57.932Z,100.00
2023-05-16T09:00:43.823Z,100.00
2023-05-16T09:03:34.976Z,87.69
2023-05-16T09:06:20.122Z,82.35
2023-05-16T09:09:13.937Z,100.00
2023-05-16T09:12:05.942Z,100.00
2023-05-16T09:14:52.144Z,100.00
2023-05-16T09:17:47.241Z,100.00
2023-05-16T09:20:32.586Z,100.00
2023-05-16T09:23:30.951Z,100.00
2023-05-16T09:26:16.182Z,92.40
2023-05-16T09:29:08.945Z,100.00
2023-05-16T09:31:53.966Z,100.00
2023-05-16T09:34:51.969Z,100.00
2023-05-16T09:37:36.983Z,100.00
2023-05-16T09:40:31.968Z,100.00
2023-05-16T09:43:24.944Z,98.14
2023-05-16T09:46:20.096Z,98.21
2023-05-16T09:49:11.960Z,85.89
2023-05-16T09:52:07.977Z,77.63
2023-05-16T09:55:00.966Z,74.64
2023-05-16T09:57:52.941Z,79.50
2023-05-16T10:00:44.999Z,72.54
2023-05-16T10:03:37.149Z,86.09
2023-05-16T10:06:22.784Z,90.24
2023-05-16T10:09:18.972Z,100.00
2023-05-16T10:12:08.144Z,92.92
2023-05-16T10:14:59.966Z,78.77
2023-05-16T10:17:50.537Z,74.33
2023-05-16T10:20:42.972Z,91.63
2023-05-16T10:23:28.309Z,89.81
2023-05-16T10:26:23.102Z,77.55
2023-05-16T10:29:08.424Z,100.00
2023-05-16T10:32:00.037Z,84.17
2023-05-16T10:34:46.312Z,75.70
2023-05-16T10:37:38.981Z,67.94
2023-05-16T10:40:24.629Z,68.26
2023-05-16T10:43:15.988Z,53.96
2023-05-16T10:46:16.083Z,86.23
2023-05-16T10:49:25.989Z,65.84
2023-05-16T10:52:18.981Z,61.25
2023-05-16T10:55:04.807Z,64.89
2023-05-16T10:57:56.008Z,79.23
2023-05-16T11:00:41.191Z,74.91
2023-05-16T11:03:35.086Z,80.60
2023-05-16T11:06:25.109Z,81.94
2023-05-16T11:09:23.016Z,86.82
2023-05-16T11:12:09.598Z,83.31
2023-05-16T11:15:01.007Z,88.93
2023-05-16T11:17:46.430Z,82.31
2023-05-16T11:20:41.020Z,77.55
2023-05-16T11:23:26.202Z,89.08
2023-05-16T11:26:18.014Z,82.71
2023-05-16T11:29:04.532Z,78.35
2023-05-16T11:31:56.016Z,75.45
2023-05-16T11:34:41.880Z,83.52
2023-05-16T11:37:33.053Z,79.11
2023-05-16T11:40:18.123Z,77.06
2023-05-16T11:43:10.020Z,86.31
2023-05-16T11:46:01.308Z,82.41
2023-05-16T11:48:54.009Z,89.42
2023-05-16T11:51:43.336Z,89.34
2023-05-16T11:54:35.025Z,95.66
2023-05-16T11:57:21.575Z,91.13
2023-05-16T12:00:21.048Z,87.47
2023-05-16T12:03:13.287Z,85.84
2023-05-16T12:06:05.007Z,86.21
2023-05-16T12:08:51.445Z,92.01
2023-05-16T12:11:48.029Z,88.83
2023-05-16T12:14:33.426Z,93.38
2023-05-16T12:17:27.105Z,91.00
2023-05-16T12:20:14.257Z,87.71
2023-05-16T12:23:06.031Z,88.05
2023-05-16T12:26:00.021Z,92.90
2023-05-16T12:28:51.127Z,88.29
2023-05-16T12:31:38.645Z,92.81
2023-05-16T12:34:31.048Z,99.22
2023-05-16T12:37:15.985Z,95.90
2023-05-16T12:40:08.041Z,91.72
2023-05-16T12:42:53.962Z,84.36
2023-05-16T12:46:00.099Z,93.07
2023-05-16T12:48:51.084Z,86.63
2023-05-16T12:51:42.062Z,91.54
2023-05-16T12:54:26.917Z,90.03
2023-05-16T12:57:18.032Z,91.72
2023-05-16T13:00:03.571Z,95.26
2023-05-16T13:02:55.132Z,100.00
2023-05-16T13:05:40.951Z,100.00
2023-05-16T13:08:34.056Z,100.00
2023-05-16T13:11:19.103Z,97.54
2023-05-16T13:14:11.073Z,100.00
2023-05-16T13:16:56.198Z,90.70
2023-05-16T13:19:49.015Z,94.14
2023-05-16T13:22:34.345Z,94.07
2023-05-16T13:25:26.296Z,99.04
2023-05-16T13:28:11.462Z,100.00
2023-05-16T13:31:03.065Z,100.00
2023-05-16T13:33:48.868Z,97.96
2023-05-16T13:36:53.226Z,89.56
2023-05-16T13:39:46.059Z,88.10
2023-05-16T13:42:52.074Z,91.17
2023-05-16T13:45:44.126Z,79.25
2023-05-16T13:48:43.052Z,78.21
2023-05-16T13:51:27.864Z,79.20
2023-05-16T13:54:19.081Z,83.69
2023-05-16T13:57:05.011Z,83.19
2023-05-16T14:00:24.903Z,85.38
2023-05-16T14:03:08.085Z,82.32
2023-05-16T14:05:52.922Z,83.12
2023-05-16T14:08:45.091Z,91.03
2023-05-16T14:11:30.486Z,81.80
2023-05-16T14:14:22.100Z,90.82
2023-05-16T14:17:07.424Z,83.68
2023-05-16T14:20:00.087Z,82.39
2023-05-16T14:22:45.006Z,80.25
2023-05-16T14:25:37.173Z,83.58
2023-05-16T14:28:22.111Z,76.41
2023-05-16T14:31:13.088Z,77.02
2023-05-16T14:33:58.933Z,73.51
2023-05-16T14:36:50.061Z,72.82
2023-05-16T14:39:35.087Z,84.72
2023-05-16T14:42:27.085Z,81.55
2023-05-16T14:45:18.148Z,77.14
2023-05-16T14:48:16.156Z,84.85
2023-05-16T14:51:01.557Z,80.28
2023-05-16T14:53:54.080Z,76.48
2023-05-16T14:56:39.157Z,77.35
2023-05-16T14:59:30.086Z,73.37
2023-05-16T15:02:15.189Z,76.82
2023-05-16T15:05:07.181Z,74.31
2023-05-16T15:07:52.403Z,80.53
2023-05-16T15:10:44.060Z,71.86
2023-05-16T15:13:29.386Z,75.47
2023-05-16T15:16:21.119Z,77.63
2023-05-16T15:19:06.119Z,80.39
2023-05-16T15:21:58.062Z,85.25
2023-05-16T15:24:49.259Z,81.13
2023-05-16T15:27:34.476Z,82.84
2023-05-16T15:30:26.120Z,86.25
2023-05-16T15:33:11.338Z,86.41
2023-05-16T15:36:03.072Z,88.92
2023-05-16T15:38:48.053Z,94.24
2023-05-16T15:42:05.372Z,91.45
2023-05-16T15:44:51.099Z,95.46
2023-05-16T15:47:42.123Z,90.77
2023-05-16T15:50:34.113Z,97.22
2023-05-16T15:53:19.019Z,91.25
2023-05-16T15:56:11.088Z,91.65
2023-05-16T15:59:03.098Z,95.91
2023-05-16T16:01:54.125Z,90.28
2023-05-16T16:04:38.949Z,86.94
2023-05-16T16:07:31.076Z,85.20
2023-05-16T16:10:19.485Z,93.74
2023-05-16T16:13:12.113Z,84.26
2023-05-16T16:16:04.171Z,85.71
2023-05-16T16:18:50.286Z,86.62
2023-05-16T16:21:42.084Z,93.27
2023-05-16T16:24:27.012Z,85.73
2023-05-16T16:27:19.103Z,92.39
2023-05-16T16:30:05.423Z,86.46
2023-05-16T16:32:57.172Z,91.98
2023-05-16T16:35:42.812Z,97.42
2023-05-16T16:38:34.124Z,91.37
2023-05-16T16:41:26.101Z,91.48
2023-05-16T16:44:18.101Z,97.24
2023-05-16T16:47:09.336Z,90.20
2023-05-16T16:50:01.122Z,92.23
2023-05-16T16:52:52.107Z,95.03
2023-05-16T16:55:44.122Z,93.97
2023-05-16T16:58:36.330Z,98.01
2023-05-16T17:01:29.954Z,95.05
2023-05-16T17:04:22.104Z,97.98
2023-05-16T17:07:14.330Z,100.00
2023-05-16T17:10:00.825Z,100.00
2023-05-16T17:12:56.153Z,100.00
2023-05-16T17:15:48.132Z,100.00
2023-05-16T17:18:40.120Z,100.00
2023-05-16T17:21:25.299Z,100.00
2023-05-16T17:24:17.114Z,100.00
2023-05-16T17:27:02.666Z,100.00
2023-05-16T17:29:54.119Z,100.00
2023-05-16T17:32:46.142Z,100.00
2023-05-16T17:35:38.136Z,100.00
2023-05-16T17:38:30.112Z,100.00
2023-05-16T17:41:21.131Z,100.00
2023-05-16T17:44:06.952Z,100.00
2023-05-16T17:47:05.122Z,100.00
2023-05-16T17:49:50.018Z,100.00
2023-05-16T17:52:42.152Z,100.00
2023-05-16T17:55:27.422Z,100.00
2023-05-16T17:58:19.125Z,100.00
2023-05-16T18:01:09.046Z,100.00
2023-05-16T18:04:01.227Z,100.00
2023-05-16T18:06:48.197Z,100.00
2023-05-16T18:09:40.126Z,100.00
2023-05-16T18:12:25.282Z,100.00
2023-05-16T18:15:20.143Z,100.00
2023-05-16T18:18:05.039Z,100.00
2023-05-16T18:20:57.142Z,100.00
2023-05-16T18:23:42.110Z,100.00
2023-05-16T18:26:35.221Z,100.00
2023-05-16T18:29:21.381Z,100.00
2023-05-16T18:32:13.126Z,100.00
2023-05-16T18:35:04.146Z,100.00
2023-05-16T18:37:49.181Z,100.00
2023-05-16T18:40:41.158Z,100.00
2023-05-16T18:43:33.302Z,100.00
2023-05-16T18:46:31.154Z,100.00
2023-05-16T18:49:29.144Z,100.00
2023-05-16T18:52:14.142Z,100.00
2023-05-16T18:55:06.253Z,100.00
2023-05-16T18:57:58.139Z,100.00
2023-05-16T19:00:43.025Z,100.00
2023-05-16T19:03:34.243Z,100.00
2023-05-16T19:06:19.063Z,100.00
2023-05-16T19:09:10.154Z,100.00
2023-05-16T19:11:54.985Z,100.00
2023-05-16T19:14:46.156Z,100.00
2023-05-16T19:17:31.161Z,100.00
2023-05-16T19:20:23.274Z,100.00
2023-05-16T19:23:08.343Z,100.00
2023-05-16T19:26:00.158Z,100.00
2023-05-16T19:28:45.311Z,100.00
2023-05-16T19:31:37.165Z,100.00
2023-05-16T19:34:22.163Z,100.00
2023-05-16T19:37:15.157Z,100.00
2023-05-16T19:39:59.894Z,100.00
2023-05-16T19:42:51.152Z,100.00
2023-05-16T19:45:57.156Z,100.00
2023-05-16T19:48:49.316Z,100.00
2023-05-16T19:51:42.255Z,100.00
2023-05-16T19:54:34.144Z,100.00
2023-05-16T19:57:19.017Z,100.00
2023-05-16T20:00:12.156Z,100.00
2023-05-16T20:02:57.354Z,100.00
2023-05-16T20:05:49.205Z,100.00
2023-05-16T20:08:34.289Z,100.00
2023-05-16T20:11:26.172Z,100.00
2023-05-16T20:14:18.156Z,100.00
2023-05-16T20:17:03.279Z,100.00
2023-05-16T20:19:55.374Z,100.00
2023-05-16T20:22:48.165Z,100.00
2023-05-16T20:25:33.020Z,100.00
2023-05-16T20:28:24.164Z,100.00
2023-05-16T20:31:11.718Z,100.00
2023-05-16T20:34:03.185Z,100.00
2023-05-16T20:36:55.165Z,100.00
2023-05-16T20:39:40.338Z,100.00
2023-05-16T20:42:32.150Z,100.00
2023-05-16T20:45:37.173Z,100.00
2023-05-16T20:48:28.283Z,100.00
2023-05-16T20:51:13.626Z,100.00
2023-05-16T20:54:05.188Z,100.00
2023-05-16T20:56:50.291Z,100.00
2023-05-16T20:59:44.187Z,100.00
2023-05-16T21:02:29.606Z,100.00
2023-05-16T21:05:25.662Z,100.00
2023-05-16T21:08:18.167Z,100.00
2023-05-16T21:11:10.195Z,100.00
2023-05-16T21:14:02.173Z,100.00
2023-05-16T21:16:54.206Z,100.00
2023-05-16T21:19:45.211Z,100.00
2023-05-16T21:22:37.199Z,100.00
2023-05-16T21:25:28.439Z,100.00
2023-05-16T21:28:13.670Z,100.00
2023-05-16T21:31:05.213Z,100.00
2023-05-16T21:33:53.441Z,100.00
2023-05-16T21:36:45.184Z,100.00
2023-05-16T21:39:36.207Z,100.00
2023-05-16T21:42:21.284Z,100.00
2023-05-16T21:45:19.199Z,100.00
2023-05-16T21:48:10.527Z,100.00
2023-05-16T21:51:02.247Z,100.00
2023-05-16T21:53:47.035Z,100.00
2023-05-16T21:56:39.202Z,100.00
2023-05-16T21:59:30.203Z,100.00
2023-05-16T22:02:15.287Z,100.00
2023-05-16T22:05:06.264Z,100.00
2023-05-16T22:07:51.365Z,100.00
2023-05-16T22:10:43.255Z,100.00
2023-05-16T22:13:28.181Z,100.00
2023-05-16T22:16:19.215Z,100.00
2023-05-16T22:19:10.275Z,100.00
2023-05-16T22:21:55.102Z,100.00
2023-05-16T22:24:46.202Z,100.00
2023-05-16T22:27:37.209Z,100.00
2023-05-16T22:30:22.088Z,100.00
2023-05-16T22:33:13.253Z,100.00
2023-05-16T22:35:58.312Z,100.00
2023-05-16T22:38:49.203Z,100.00
2023-05-16T22:41:40.213Z,100.00
2023-05-16T22:44:25.230Z,100.00
2023-05-16T22:47:23.218Z,100.00
2023-05-16T22:50:08.411Z,100.00
2023-05-16T22:53:00.193Z,100.00
2023-05-16T22:55:51.223Z,100.00
2023-05-16T22:58:36.097Z,100.00
2023-05-16T23:01:28.237Z,100.00
2023-05-16T23:04:20.239Z,100.00
2023-05-16T23:07:05.534Z,100.00
2023-05-16T23:09:57.210Z,100.00
2023-05-16T23:12:42.204Z,100.00
2023-05-16T23:15:34.231Z,100.00
2023-05-16T23:18:19.306Z,100.00
2023-05-16T23:21:11.212Z,100.00
2023-05-16T23:24:02.229Z,100.00
2023-05-16T23:26:47.023Z,100.00
2023-05-16T23:29:38.231Z,100.00
2023-05-16T23:32:23.137Z,100.00
2023-05-16T23:35:15.230Z,100.00
2023-05-16T23:38:00.051Z,100.00
2023-05-16T23:40:51.230Z,100.00
2023-05-16T23:43:36.122Z,100.00
2023-05-16T23:46:34.224Z,100.00
2023-05-16T23:49:19.183Z,100.00
2023-05-16T23:52:12.235Z,100.00
2023-05-16T23:54:56.990Z,100.00
2023-05-16T23:57:48.232Z,100.00
